sensor_id;sensor_type;location;lat;lon;timestamp;P1;durP1;ratioP1;P2;durP2;ratioP2
54871;SDS011;43914;57.680;11.982;2022-08-01T00:01:47;6.95;;;2.50;;
54871;SDS011;43914;57.680;11.982;2022-08-01T00:04:13;6.42;;;2.55;;
54871;SDS011;43914;57.680;11.982;2022-08-01T00:06:39;5.78;;;2.42;;
54871;SDS011;43914;57.680;11.982;2022-08-01T00:09:05;7.97;;;2.50;;
54871;SDS011;43914;57.680;11.982;2022-08-01T00:11:31;6.40;;;2.40;;
54871;SDS011;43914;57.680;11.982;2022-08-01T00:13:57;6.53;;;2.80;;
54871;SDS011;43914;57.680;11.982;2022-08-01T00:16:22;7.87;;;2.92;;
54871;SDS011;43914;57.680;11.982;2022-08-01T00:18:49;7.05;;;2.60;;
54871;SDS011;43914;57.680;11.982;2022-08-01T00:21:16;7.28;;;3.00;;
54871;SDS011;43914;57.680;11.982;2022-08-01T00:23:43;8.40;;;3.30;;
54871;SDS011;43914;57.680;11.982;2022-08-01T00:26:11;7.75;;;3.47;;
54871;SDS011;43914;57.680;11.982;2022-08-01T00:28:38;9.95;;;3.62;;
54871;SDS011;43914;57.680;11.982;2022-08-01T00:31:04;8.68;;;3.50;;
54871;SDS011;43914;57.680;11.982;2022-08-01T00:33:30;7.87;;;3.90;;
54871;SDS011;43914;57.680;11.982;2022-08-01T00:35:56;8.50;;;3.20;;
54871;SDS011;43914;57.680;11.982;2022-08-01T00:38:22;7.65;;;3.60;;
54871;SDS011;43914;57.680;11.982;2022-08-01T00:40:47;7.60;;;3.60;;
54871;SDS011;43914;57.680;11.982;2022-08-01T00:43:14;8.85;;;3.77;;
54871;SDS011;43914;57.680;11.982;2022-08-01T00:45:40;9.45;;;3.55;;
54871;SDS011;43914;57.680;11.982;2022-08-01T00:48:07;8.15;;;3.92;;
54871;SDS011;43914;57.680;11.982;2022-08-01T00:50:33;10.10;;;4.12;;
54871;SDS011;43914;57.680;11.982;2022-08-01T00:53:00;8.43;;;4.08;;
54871;SDS011;43914;57.680;11.982;2022-08-01T00:55:27;9.43;;;4.33;;
54871;SDS011;43914;57.680;11.982;2022-08-01T00:57:54;8.35;;;4.30;;
54871;SDS011;43914;57.680;11.982;2022-08-01T01:00:21;10.50;;;4.33;;
54871;SDS011;43914;57.680;11.982;2022-08-01T01:02:47;8.83;;;4.50;;
54871;SDS011;43914;57.680;11.982;2022-08-01T01:05:13;8.35;;;4.40;;
54871;SDS011;43914;57.680;11.982;2022-08-01T01:10:27;10.60;;;4.92;;
54871;SDS011;43914;57.680;11.982;2022-08-01T01:15:55;20.88;;;5.60;;
54871;SDS011;43914;57.680;11.982;2022-08-01T01:26:45;9.45;;;5.67;;
54871;SDS011;43914;57.680;11.982;2022-08-01T01:29:25;10.25;;;5.20;;
54871;SDS011;43914;57.680;11.982;2022-08-01T01:32:12;13.55;;;5.40;;
54871;SDS011;43914;57.680;11.982;2022-08-01T01:35:02;10.10;;;5.72;;
54871;SDS011;43914;57.680;11.982;2022-08-01T01:37:31;9.65;;;4.72;;
54871;SDS011;43914;57.680;11.982;2022-08-01T01:39:59;10.00;;;5.22;;
54871;SDS011;43914;57.680;11.982;2022-08-01T01:42:27;8.53;;;4.65;;
54871;SDS011;43914;57.680;11.982;2022-08-01T01:44:55;8.48;;;4.87;;
54871;SDS011;43914;57.680;11.982;2022-08-01T01:47:22;9.08;;;5.10;;
54871;SDS011;43914;57.680;11.982;2022-08-01T01:49:48;9.58;;;4.87;;
54871;SDS011;43914;57.680;11.982;2022-08-01T01:52:16;9.80;;;5.78;;
54871;SDS011;43914;57.680;11.982;2022-08-01T01:54:45;10.35;;;5.17;;
54871;SDS011;43914;57.680;11.982;2022-08-01T01:57:14;10.00;;;5.08;;
54871;SDS011;43914;57.680;11.982;2022-08-01T01:59:42;8.55;;;4.47;;
54871;SDS011;43914;57.680;11.982;2022-08-01T02:02:10;10.82;;;5.95;;
54871;SDS011;43914;57.680;11.982;2022-08-01T02:04:39;9.50;;;4.85;;
54871;SDS011;43914;57.680;11.982;2022-08-01T02:07:10;11.30;;;5.47;;
54871;SDS011;43914;57.680;11.982;2022-08-01T02:09:40;12.53;;;5.30;;
54871;SDS011;43914;57.680;11.982;2022-08-01T02:12:10;9.08;;;5.20;;
54871;SDS011;43914;57.680;11.982;2022-08-01T02:14:37;11.85;;;5.78;;
54871;SDS011;43914;57.680;11.982;2022-08-01T02:17:05;11.40;;;4.83;;
54871;SDS011;43914;57.680;11.982;2022-08-01T02:19:36;10.28;;;5.67;;
54871;SDS011;43914;57.680;11.982;2022-08-01T02:22:10;10.40;;;5.10;;
54871;SDS011;43914;57.680;11.982;2022-08-01T02:28:10;10.30;;;5.37;;
54871;SDS011;43914;57.680;11.982;2022-08-01T02:30:06;9.18;;;5.40;;
54871;SDS011;43914;57.680;11.982;2022-08-01T02:35:24;11.63;;;5.87;;
54871;SDS011;43914;57.680;11.982;2022-08-01T02:37:58;10.43;;;5.28;;
54871;SDS011;43914;57.680;11.982;2022-08-01T02:40:27;11.63;;;5.67;;
54871;SDS011;43914;57.680;11.982;2022-08-01T02:42:57;10.43;;;5.92;;
54871;SDS011;43914;57.680;11.982;2022-08-01T02:45:26;7.78;;;4.75;;
54871;SDS011;43914;57.680;11.982;2022-08-01T02:47:57;9.48;;;6.22;;
54871;SDS011;43914;57.680;11.982;2022-08-01T02:50:27;11.18;;;5.92;;
54871;SDS011;43914;57.680;11.982;2022-08-01T02:52:55;10.43;;;6.65;;
54871;SDS011;43914;57.680;11.982;2022-08-01T02:55:23;13.62;;;6.25;;
54871;SDS011;43914;57.680;11.982;2022-08-01T02:57:50;11.20;;;6.30;;
54871;SDS011;43914;57.680;11.982;2022-08-01T03:00:19;12.15;;;6.40;;
54871;SDS011;43914;57.680;11.982;2022-08-01T03:02:45;10.85;;;6.15;;
54871;SDS011;43914;57.680;11.982;2022-08-01T03:05:15;14.05;;;6.40;;
54871;SDS011;43914;57.680;11.982;2022-08-01T03:07:43;12.23;;;6.60;;
54871;SDS011;43914;57.680;11.982;2022-08-01T03:10:10;10.45;;;6.05;;
54871;SDS011;43914;57.680;11.982;2022-08-01T03:12:37;11.15;;;7.15;;
54871;SDS011;43914;57.680;11.982;2022-08-01T03:15:06;12.85;;;7.03;;
54871;SDS011;43914;57.680;11.982;2022-08-01T03:17:35;13.72;;;7.37;;
54871;SDS011;43914;57.680;11.982;2022-08-01T03:20:04;11.33;;;6.42;;
54871;SDS011;43914;57.680;11.982;2022-08-01T03:22:33;10.48;;;5.37;;
54871;SDS011;43914;57.680;11.982;2022-08-01T03:25:00;10.88;;;6.72;;
54871;SDS011;43914;57.680;11.982;2022-08-01T03:27:28;8.80;;;5.47;;
54871;SDS011;43914;57.680;11.982;2022-08-01T03:29:55;12.68;;;7.03;;
54871;SDS011;43914;57.680;11.982;2022-08-01T03:32:22;10.60;;;6.50;;
54871;SDS011;43914;57.680;11.982;2022-08-01T03:34:49;12.23;;;7.12;;
54871;SDS011;43914;57.680;11.982;2022-08-01T03:37:25;10.55;;;6.65;;
54871;SDS011;43914;57.680;11.982;2022-08-01T03:40:25;11.80;;;7.70;;
54871;SDS011;43914;57.680;11.982;2022-08-01T03:42:56;14.03;;;6.57;;
54871;SDS011;43914;57.680;11.982;2022-08-01T03:47:59;13.48;;;8.35;;
54871;SDS011;43914;57.680;11.982;2022-08-01T03:50:29;14.95;;;8.35;;
54871;SDS011;43914;57.680;11.982;2022-08-01T03:52:59;14.38;;;8.50;;
54871;SDS011;43914;57.680;11.982;2022-08-01T03:55:28;12.45;;;7.35;;
54871;SDS011;43914;57.680;11.982;2022-08-01T03:57:59;11.50;;;6.95;;
54871;SDS011;43914;57.680;11.982;2022-08-01T04:00:26;12.55;;;7.87;;
54871;SDS011;43914;57.680;11.982;2022-08-01T04:02:53;14.47;;;9.10;;
54871;SDS011;43914;57.680;11.982;2022-08-01T04:05:20;11.90;;;7.53;;
54871;SDS011;43914;57.680;11.982;2022-08-01T04:07:47;12.35;;;7.80;;
54871;SDS011;43914;57.680;11.982;2022-08-01T04:10:19;11.60;;;7.97;;
54871;SDS011;43914;57.680;11.982;2022-08-01T04:12:45;12.73;;;8.35;;
54871;SDS011;43914;57.680;11.982;2022-08-01T04:15:11;11.00;;;7.47;;
54871;SDS011;43914;57.680;11.982;2022-08-01T04:17:37;9.50;;;5.12;;
54871;SDS011;43914;57.680;11.982;2022-08-01T04:20:03;12.25;;;5.97;;
54871;SDS011;43914;57.680;11.982;2022-08-01T04:22:30;9.83;;;5.35;;
54871;SDS011;43914;57.680;11.982;2022-08-01T04:24:56;11.78;;;5.67;;
54871;SDS011;43914;57.680;11.982;2022-08-01T04:27:26;11.22;;;6.10;;
54871;SDS011;43914;57.680;11.982;2022-08-01T04:29:58;9.55;;;5.60;;
54871;SDS011;43914;57.680;11.982;2022-08-01T04:32:25;12.43;;;5.97;;
54871;SDS011;43914;57.680;11.982;2022-08-01T04:34:55;9.38;;;4.37;;
54871;SDS011;43914;57.680;11.982;2022-08-01T04:37:25;8.55;;;4.60;;
54871;SDS011;43914;57.680;11.982;2022-08-01T04:39:55;10.98;;;4.42;;
54871;SDS011;43914;57.680;11.982;2022-08-01T04:42:24;9.25;;;3.65;;
54871;SDS011;43914;57.680;11.982;2022-08-01T04:44:51;8.08;;;3.83;;
54871;SDS011;43914;57.680;11.982;2022-08-01T04:47:17;12.20;;;3.90;;
54871;SDS011;43914;57.680;11.982;2022-08-01T04:49:44;9.98;;;3.60;;
54871;SDS011;43914;57.680;11.982;2022-08-01T04:52:11;10.20;;;3.98;;
54871;SDS011;43914;57.680;11.982;2022-08-01T04:54:37;9.50;;;4.15;;
54871;SDS011;43914;57.680;11.982;2022-08-01T04:57:03;8.25;;;3.45;;
54871;SDS011;43914;57.680;11.982;2022-08-01T04:59:31;7.40;;;3.70;;
54871;SDS011;43914;57.680;11.982;2022-08-01T05:02:04;8.48;;;3.40;;
54871;SDS011;43914;57.680;11.982;2022-08-01T05:04:32;7.70;;;3.42;;
54871;SDS011;43914;57.680;11.982;2022-08-01T05:06:59;7.03;;;2.12;;
54871;SDS011;43914;57.680;11.982;2022-08-01T05:09:25;7.40;;;2.30;;
54871;SDS011;43914;57.680;11.982;2022-08-01T05:11:51;7.58;;;2.70;;
54871;SDS011;43914;57.680;11.982;2022-08-01T05:14:18;6.37;;;2.20;;
54871;SDS011;43914;57.680;11.982;2022-08-01T05:16:44;6.05;;;2.25;;
54871;SDS011;43914;57.680;11.982;2022-08-01T05:19:11;6.83;;;2.60;;
54871;SDS011;43914;57.680;11.982;2022-08-01T05:21:37;7.20;;;2.10;;
54871;SDS011;43914;57.680;11.982;2022-08-01T05:24:04;5.55;;;2.40;;
54871;SDS011;43914;57.680;11.982;2022-08-01T05:26:30;6.42;;;2.58;;
54871;SDS011;43914;57.680;11.982;2022-08-01T05:28:57;8.88;;;2.60;;
54871;SDS011;43914;57.680;11.982;2022-08-01T05:31:22;8.23;;;2.60;;
54871;SDS011;43914;57.680;11.982;2022-08-01T05:33:48;7.55;;;3.25;;
54871;SDS011;43914;57.680;11.982;2022-08-01T05:36:14;6.83;;;3.22;;
54871;SDS011;43914;57.680;11.982;2022-08-01T05:38:40;7.12;;;2.70;;
54871;SDS011;43914;57.680;11.982;2022-08-01T05:41:06;9.03;;;2.75;;
54871;SDS011;43914;57.680;11.982;2022-08-01T05:43:31;8.58;;;2.50;;
54871;SDS011;43914;57.680;11.982;2022-08-01T05:45:57;6.05;;;2.40;;
54871;SDS011;43914;57.680;11.982;2022-08-01T05:48:23;6.45;;;2.17;;
54871;SDS011;43914;57.680;11.982;2022-08-01T05:50:50;6.65;;;2.15;;
54871;SDS011;43914;57.680;11.982;2022-08-01T05:53:16;6.90;;;2.00;;
54871;SDS011;43914;57.680;11.982;2022-08-01T05:55:42;4.67;;;1.80;;
54871;SDS011;43914;57.680;11.982;2022-08-01T05:58:08;5.47;;;2.02;;
54871;SDS011;43914;57.680;11.982;2022-08-01T06:00:34;5.33;;;1.98;;
54871;SDS011;43914;57.680;11.982;2022-08-01T06:03:00;6.12;;;1.90;;
54871;SDS011;43914;57.680;11.982;2022-08-01T06:05:26;8.10;;;2.15;;
54871;SDS011;43914;57.680;11.982;2022-08-01T06:07:52;4.40;;;1.72;;
54871;SDS011;43914;57.680;11.982;2022-08-01T06:10:18;7.22;;;1.67;;
54871;SDS011;43914;57.680;11.982;2022-08-01T06:12:44;5.72;;;2.00;;
54871;SDS011;43914;57.680;11.982;2022-08-01T06:15:10;6.00;;;2.02;;
54871;SDS011;43914;57.680;11.982;2022-08-01T06:17:37;5.72;;;2.05;;
54871;SDS011;43914;57.680;11.982;2022-08-01T06:20:04;5.17;;;1.90;;
54871;SDS011;43914;57.680;11.982;2022-08-01T06:22:31;6.05;;;2.02;;
54871;SDS011;43914;57.680;11.982;2022-08-01T06:24:58;6.72;;;1.82;;
54871;SDS011;43914;57.680;11.982;2022-08-01T06:27:24;4.70;;;1.77;;
54871;SDS011;43914;57.680;11.982;2022-08-01T06:29:51;5.83;;;1.50;;
54871;SDS011;43914;57.680;11.982;2022-08-01T06:32:19;6.67;;;1.70;;
54871;SDS011;43914;57.680;11.982;2022-08-01T06:34:47;9.25;;;1.90;;
54871;SDS011;43914;57.680;11.982;2022-08-01T06:37:13;6.70;;;1.70;;
54871;SDS011;43914;57.680;11.982;2022-08-01T06:39:41;10.53;;;1.90;;
54871;SDS011;43914;57.680;11.982;2022-08-01T06:42:07;8.15;;;1.80;;
54871;SDS011;43914;57.680;11.982;2022-08-01T06:44:34;6.72;;;1.80;;
54871;SDS011;43914;57.680;11.982;2022-08-01T06:47:00;9.95;;;1.90;;
54871;SDS011;43914;57.680;11.982;2022-08-01T06:49:26;9.90;;;2.20;;
54871;SDS011;43914;57.680;11.982;2022-08-01T06:51:52;7.08;;;1.80;;
54871;SDS011;43914;57.680;11.982;2022-08-01T06:54:19;10.78;;;2.10;;
54871;SDS011;43914;57.680;11.982;2022-08-01T06:56:46;9.55;;;2.17;;
54871;SDS011;43914;57.680;11.982;2022-08-01T06:59:11;9.85;;;2.17;;
54871;SDS011;43914;57.680;11.982;2022-08-01T07:01:37;10.98;;;2.50;;
54871;SDS011;43914;57.680;11.982;2022-08-01T07:04:03;10.82;;;2.22;;
54871;SDS011;43914;57.680;11.982;2022-08-01T07:06:30;8.43;;;2.27;;
54871;SDS011;43914;57.680;11.982;2022-08-01T07:08:56;8.20;;;1.82;;
54871;SDS011;43914;57.680;11.982;2022-08-01T07:11:23;9.60;;;2.20;;
54871;SDS011;43914;57.680;11.982;2022-08-01T07:13:49;8.18;;;1.92;;
54871;SDS011;43914;57.680;11.982;2022-08-01T07:16:17;14.68;;;2.33;;
54871;SDS011;43914;57.680;11.982;2022-08-01T07:18:44;10.78;;;1.87;;
54871;SDS011;43914;57.680;11.982;2022-08-01T07:21:09;8.70;;;2.10;;
54871;SDS011;43914;57.680;11.982;2022-08-01T07:23:36;11.10;;;2.17;;
54871;SDS011;43914;57.680;11.982;2022-08-01T07:26:02;9.18;;;2.20;;
54871;SDS011;43914;57.680;11.982;2022-08-01T07:28:29;8.78;;;1.90;;
54871;SDS011;43914;57.680;11.982;2022-08-01T07:30:57;10.13;;;2.08;;
54871;SDS011;43914;57.680;11.982;2022-08-01T07:33:23;6.53;;;1.72;;
54871;SDS011;43914;57.680;11.982;2022-08-01T07:35:49;7.33;;;1.90;;
54871;SDS011;43914;57.680;11.982;2022-08-01T07:38:14;9.23;;;2.17;;
54871;SDS011;43914;57.680;11.982;2022-08-01T07:40:42;10.23;;;2.00;;
54871;SDS011;43914;57.680;11.982;2022-08-01T07:43:09;11.00;;;2.27;;
54871;SDS011;43914;57.680;11.982;2022-08-01T07:45:35;9.43;;;1.90;;
54871;SDS011;43914;57.680;11.982;2022-08-01T07:48:02;10.98;;;1.92;;
54871;SDS011;43914;57.680;11.982;2022-08-01T07:50:32;9.73;;;2.00;;
54871;SDS011;43914;57.680;11.982;2022-08-01T07:52:58;8.85;;;2.20;;
54871;SDS011;43914;57.680;11.982;2022-08-01T07:55:25;8.90;;;2.05;;
54871;SDS011;43914;57.680;11.982;2022-08-01T07:57:51;11.63;;;2.45;;
54871;SDS011;43914;57.680;11.982;2022-08-01T08:00:20;8.35;;;2.10;;
54871;SDS011;43914;57.680;11.982;2022-08-01T08:02:46;9.53;;;2.17;;
54871;SDS011;43914;57.680;11.982;2022-08-01T08:05:12;9.28;;;2.08;;
54871;SDS011;43914;57.680;11.982;2022-08-01T08:07:38;8.78;;;2.12;;
54871;SDS011;43914;57.680;11.982;2022-08-01T08:10:04;8.58;;;2.10;;
54871;SDS011;43914;57.680;11.982;2022-08-01T08:12:33;8.88;;;1.90;;
54871;SDS011;43914;57.680;11.982;2022-08-01T08:15:00;9.28;;;1.90;;
54871;SDS011;43914;57.680;11.982;2022-08-01T08:17:28;7.20;;;1.80;;
54871;SDS011;43914;57.680;11.982;2022-08-01T08:19:56;11.60;;;1.92;;
54871;SDS011;43914;57.680;11.982;2022-08-01T08:22:22;7.03;;;1.90;;
54871;SDS011;43914;57.680;11.982;2022-08-01T08:24:48;6.47;;;1.82;;
54871;SDS011;43914;57.680;11.982;2022-08-01T08:27:14;9.13;;;1.82;;
54871;SDS011;43914;57.680;11.982;2022-08-01T08:29:40;10.93;;;2.10;;
54871;SDS011;43914;57.680;11.982;2022-08-01T08:32:07;7.78;;;2.42;;
54871;SDS011;43914;57.680;11.982;2022-08-01T08:34:33;6.62;;;1.70;;
54871;SDS011;43914;57.680;11.982;2022-08-01T08:36:59;7.03;;;1.92;;
54871;SDS011;43914;57.680;11.982;2022-08-01T08:39:25;12.37;;;2.12;;
54871;SDS011;43914;57.680;11.982;2022-08-01T08:41:54;10.25;;;1.90;;
54871;SDS011;43914;57.680;11.982;2022-08-01T08:44:20;9.38;;;2.00;;
54871;SDS011;43914;57.680;11.982;2022-08-01T08:46:47;7.00;;;1.90;;
54871;SDS011;43914;57.680;11.982;2022-08-01T08:49:21;7.58;;;1.87;;
54871;SDS011;43914;57.680;11.982;2022-08-01T08:51:51;8.23;;;1.80;;
54871;SDS011;43914;57.680;11.982;2022-08-01T08:54:18;10.10;;;1.80;;
54871;SDS011;43914;57.680;11.982;2022-08-01T08:56:49;9.23;;;1.80;;
54871;SDS011;43914;57.680;11.982;2022-08-01T08:59:17;9.48;;;1.80;;
54871;SDS011;43914;57.680;11.982;2022-08-01T09:01:44;10.80;;;2.58;;
54871;SDS011;43914;57.680;11.982;2022-08-01T09:04:10;11.00;;;2.17;;
54871;SDS011;43914;57.680;11.982;2022-08-01T09:06:37;11.15;;;2.45;;
54871;SDS011;43914;57.680;11.982;2022-08-01T09:09:04;8.95;;;1.85;;
54871;SDS011;43914;57.680;11.982;2022-08-01T09:11:32;8.43;;;1.80;;
54871;SDS011;43914;57.680;11.982;2022-08-01T09:14:03;11.95;;;2.00;;
54871;SDS011;43914;57.680;11.982;2022-08-01T09:22:14;11.48;;;2.17;;
54871;SDS011;43914;57.680;11.982;2022-08-01T09:27:35;9.88;;;2.05;;
54871;SDS011;43914;57.680;11.982;2022-08-01T09:33:03;10.75;;;1.90;;
54871;SDS011;43914;57.680;11.982;2022-08-01T09:35:31;7.75;;;1.75;;
54871;SDS011;43914;57.680;11.982;2022-08-01T09:38:11;9.43;;;1.85;;
54871;SDS011;43914;57.680;11.982;2022-08-01T09:40:54;9.53;;;1.90;;
54871;SDS011;43914;57.680;11.982;2022-08-01T09:43:23;10.50;;;2.10;;
54871;SDS011;43914;57.680;11.982;2022-08-01T09:45:53;13.30;;;2.60;;
54871;SDS011;43914;57.680;11.982;2022-08-01T09:48:20;12.23;;;2.20;;
54871;SDS011;43914;57.680;11.982;2022-08-01T09:50:48;12.18;;;2.10;;
54871;SDS011;43914;57.680;11.982;2022-08-01T09:53:16;12.37;;;2.30;;
54871;SDS011;43914;57.680;11.982;2022-08-01T09:55:42;12.03;;;2.37;;
54871;SDS011;43914;57.680;11.982;2022-08-01T09:58:09;13.00;;;2.25;;
54871;SDS011;43914;57.680;11.982;2022-08-01T10:00:37;10.78;;;2.35;;
54871;SDS011;43914;57.680;11.982;2022-08-01T10:03:23;11.50;;;2.58;;
54871;SDS011;43914;57.680;11.982;2022-08-01T10:05:51;12.10;;;1.98;;
54871;SDS011;43914;57.680;11.982;2022-08-01T10:08:18;9.73;;;2.20;;
54871;SDS011;43914;57.680;11.982;2022-08-01T10:11:04;11.43;;;2.02;;
54871;SDS011;43914;57.680;11.982;2022-08-01T10:13:35;8.88;;;2.02;;
54871;SDS011;43914;57.680;11.982;2022-08-01T10:16:01;8.55;;;2.60;;
54871;SDS011;43914;57.680;11.982;2022-08-01T10:18:30;6.87;;;2.00;;
54871;SDS011;43914;57.680;11.982;2022-08-01T10:20:59;11.35;;;2.30;;
54871;SDS011;43914;57.680;11.982;2022-08-01T10:23:27;10.10;;;2.42;;
54871;SDS011;43914;57.680;11.982;2022-08-01T10:25:55;11.93;;;2.27;;
54871;SDS011;43914;57.680;11.982;2022-08-01T10:28:24;11.40;;;2.55;;
54871;SDS011;43914;57.680;11.982;2022-08-01T10:30:51;11.63;;;2.00;;
54871;SDS011;43914;57.680;11.982;2022-08-01T10:33:17;10.85;;;2.05;;
54871;SDS011;43914;57.680;11.982;2022-08-01T10:35:45;7.47;;;1.80;;
54871;SDS011;43914;57.680;11.982;2022-08-01T10:38:11;8.53;;;1.77;;
54871;SDS011;43914;57.680;11.982;2022-08-01T10:40:37;12.45;;;1.82;;
54871;SDS011;43914;57.680;11.982;2022-08-01T10:43:06;9.30;;;1.80;;
54871;SDS011;43914;57.680;11.982;2022-08-01T10:45:44;7.72;;;1.77;;
54871;SDS011;43914;57.680;11.982;2022-08-01T10:48:20;8.50;;;1.65;;
54871;SDS011;43914;57.680;11.982;2022-08-01T10:50:58;11.80;;;1.80;;
54871;SDS011;43914;57.680;11.982;2022-08-01T10:53:27;7.03;;;1.60;;
54871;SDS011;43914;57.680;11.982;2022-08-01T10:55:58;8.48;;;1.70;;
54871;SDS011;43914;57.680;11.982;2022-08-01T10:58:32;6.08;;;1.62;;
54871;SDS011;43914;57.680;11.982;2022-08-01T11:01:20;7.17;;;1.40;;
54871;SDS011;43914;57.680;11.982;2022-08-01T11:06:40;9.70;;;1.70;;
54871;SDS011;43914;57.680;11.982;2022-08-01T11:09:29;8.85;;;1.57;;
54871;SDS011;43914;57.680;11.982;2022-08-01T11:12:08;5.85;;;1.52;;
54871;SDS011;43914;57.680;11.982;2022-08-01T11:38:43;8.05;;;1.42;;
54871;SDS011;43914;57.680;11.982;2022-08-01T11:41:23;7.10;;;1.60;;
54871;SDS011;43914;57.680;11.982;2022-08-01T11:54:54;5.12;;;1.50;;
54871;SDS011;43914;57.680;11.982;2022-08-01T11:57:32;7.58;;;1.50;;
54871;SDS011;43914;57.680;11.982;2022-08-01T12:00:13;9.70;;;1.70;;
54871;SDS011;43914;57.680;11.982;2022-08-01T12:02:43;9.20;;;1.55;;
54871;SDS011;43914;57.680;11.982;2022-08-01T12:05:12;8.68;;;1.67;;
54871;SDS011;43914;57.680;11.982;2022-08-01T12:07:42;9.60;;;1.60;;
54871;SDS011;43914;57.680;11.982;2022-08-01T12:15:17;5.33;;;1.50;;
54871;SDS011;43914;57.680;11.982;2022-08-01T12:17:56;7.62;;;1.95;;
54871;SDS011;43914;57.680;11.982;2022-08-01T12:20:23;7.15;;;1.55;;
54871;SDS011;43914;57.680;11.982;2022-08-01T12:22:55;7.80;;;1.67;;
54871;SDS011;43914;57.680;11.982;2022-08-01T12:25:23;7.05;;;1.65;;
54871;SDS011;43914;57.680;11.982;2022-08-01T12:27:50;7.62;;;1.70;;
54871;SDS011;43914;57.680;11.982;2022-08-01T12:30:17;10.70;;;1.60;;
54871;SDS011;43914;57.680;11.982;2022-08-01T12:32:49;6.60;;;1.65;;
54871;SDS011;43914;57.680;11.982;2022-08-01T12:35:17;8.98;;;1.77;;
54871;SDS011;43914;57.680;11.982;2022-08-01T12:37:48;9.35;;;1.72;;
54871;SDS011;43914;57.680;11.982;2022-08-01T12:40:17;9.15;;;1.60;;
54871;SDS011;43914;57.680;11.982;2022-08-01T12:42:54;10.13;;;1.87;;
54871;SDS011;43914;57.680;11.982;2022-08-01T12:45:24;7.70;;;1.40;;
54871;SDS011;43914;57.680;11.982;2022-08-01T12:47:54;5.03;;;1.40;;
54871;SDS011;43914;57.680;11.982;2022-08-01T12:50:23;8.45;;;1.50;;
54871;SDS011;43914;57.680;11.982;2022-08-01T12:52:53;12.13;;;1.72;;
54871;SDS011;43914;57.680;11.982;2022-08-01T12:55:20;6.33;;;1.47;;
54871;SDS011;43914;57.680;11.982;2022-08-01T12:57:49;6.47;;;1.40;;
54871;SDS011;43914;57.680;11.982;2022-08-01T13:00:32;9.43;;;2.33;;
54871;SDS011;43914;57.680;11.982;2022-08-01T13:03:08;9.18;;;1.75;;
54871;SDS011;43914;57.680;11.982;2022-08-01T13:08:20;6.42;;;1.30;;
54871;SDS011;43914;57.680;11.982;2022-08-01T13:10:50;7.22;;;1.45;;
54871;SDS011;43914;57.680;11.982;2022-08-01T13:13:21;7.67;;;1.60;;
54871;SDS011;43914;57.680;11.982;2022-08-01T13:15:47;8.80;;;1.47;;
54871;SDS011;43914;57.680;11.982;2022-08-01T13:24:06;8.68;;;1.62;;
54871;SDS011;43914;57.680;11.982;2022-08-01T13:26:38;8.18;;;1.65;;
54871;SDS011;43914;57.680;11.982;2022-08-01T13:29:28;7.75;;;1.40;;
54871;SDS011;43914;57.680;11.982;2022-08-01T13:32:12;8.35;;;1.40;;
54871;SDS011;43914;57.680;11.982;2022-08-01T13:34:43;9.10;;;1.60;;
54871;SDS011;43914;57.680;11.982;2022-08-01T13:37:09;7.50;;;1.50;;
54871;SDS011;43914;57.680;11.982;2022-08-01T13:39:35;6.62;;;1.40;;
54871;SDS011;43914;57.680;11.982;2022-08-01T13:42:10;7.55;;;1.60;;
54871;SDS011;43914;57.680;11.982;2022-08-01T13:44:39;8.78;;;1.60;;
54871;SDS011;43914;57.680;11.982;2022-08-01T13:47:06;7.33;;;1.40;;
54871;SDS011;43914;57.680;11.982;2022-08-01T13:49:32;9.78;;;1.70;;
54871;SDS011;43914;57.680;11.982;2022-08-01T13:51:58;6.45;;;1.30;;
54871;SDS011;43914;57.680;11.982;2022-08-01T13:54:25;8.28;;;1.92;;
54871;SDS011;43914;57.680;11.982;2022-08-01T13:56:51;6.75;;;1.30;;
54871;SDS011;43914;57.680;11.982;2022-08-01T13:59:19;6.47;;;1.40;;
54871;SDS011;43914;57.680;11.982;2022-08-01T14:01:45;7.22;;;1.52;;
54871;SDS011;43914;57.680;11.982;2022-08-01T14:04:12;7.47;;;1.67;;
54871;SDS011;43914;57.680;11.982;2022-08-01T14:06:38;6.37;;;1.30;;
54871;SDS011;43914;57.680;11.982;2022-08-01T14:09:04;6.20;;;1.50;;
54871;SDS011;43914;57.680;11.982;2022-08-01T14:11:30;6.87;;;1.50;;
54871;SDS011;43914;57.680;11.982;2022-08-01T14:13:57;7.87;;;1.70;;
54871;SDS011;43914;57.680;11.982;2022-08-01T14:16:23;6.65;;;1.42;;
54871;SDS011;43914;57.680;11.982;2022-08-01T14:18:49;8.08;;;1.62;;
54871;SDS011;43914;57.680;11.982;2022-08-01T14:21:15;9.90;;;1.55;;
54871;SDS011;43914;57.680;11.982;2022-08-01T14:23:42;7.35;;;1.60;;
54871;SDS011;43914;57.680;11.982;2022-08-01T14:26:08;5.78;;;1.22;;
54871;SDS011;43914;57.680;11.982;2022-08-01T14:28:38;8.95;;;1.60;;
54871;SDS011;43914;57.680;11.982;2022-08-01T14:31:05;8.28;;;1.55;;
54871;SDS011;43914;57.680;11.982;2022-08-01T14:33:31;5.97;;;1.22;;
54871;SDS011;43914;57.680;11.982;2022-08-01T14:35:57;8.13;;;1.55;;
54871;SDS011;43914;57.680;11.982;2022-08-01T14:38:23;9.30;;;1.35;;
54871;SDS011;43914;57.680;11.982;2022-08-01T14:40:49;5.28;;;1.27;;
54871;SDS011;43914;57.680;11.982;2022-08-01T14:43:18;7.53;;;1.32;;
54871;SDS011;43914;57.680;11.982;2022-08-01T14:45:45;4.85;;;1.27;;
54871;SDS011;43914;57.680;11.982;2022-08-01T14:48:14;7.58;;;1.40;;
54871;SDS011;43914;57.680;11.982;2022-08-01T14:50:40;8.70;;;1.60;;
54871;SDS011;43914;57.680;11.982;2022-08-01T14:53:06;7.22;;;1.65;;
54871;SDS011;43914;57.680;11.982;2022-08-01T14:55:32;5.08;;;1.30;;
54871;SDS011;43914;57.680;11.982;2022-08-01T14:57:57;6.00;;;1.42;;
54871;SDS011;43914;57.680;11.982;2022-08-01T15:00:23;6.67;;;1.35;;
54871;SDS011;43914;57.680;11.982;2022-08-01T15:02:49;4.70;;;1.05;;
54871;SDS011;43914;57.680;11.982;2022-08-01T15:05:15;7.50;;;1.32;;
54871;SDS011;43914;57.680;11.982;2022-08-01T15:07:41;7.30;;;1.20;;
54871;SDS011;43914;57.680;11.982;2022-08-01T15:10:07;7.20;;;1.37;;
54871;SDS011;43914;57.680;11.982;2022-08-01T15:12:36;6.62;;;1.47;;
54871;SDS011;43914;57.680;11.982;2022-08-01T15:15:04;6.42;;;1.40;;
54871;SDS011;43914;57.680;11.982;2022-08-01T15:17:31;7.45;;;1.55;;
54871;SDS011;43914;57.680;11.982;2022-08-01T15:19:59;6.70;;;1.40;;
54871;SDS011;43914;57.680;11.982;2022-08-01T15:22:28;6.70;;;1.60;;
54871;SDS011;43914;57.680;11.982;2022-08-01T15:24:55;5.05;;;1.00;;
54871;SDS011;43914;57.680;11.982;2022-08-01T15:27:24;5.97;;;1.30;;
54871;SDS011;43914;57.680;11.982;2022-08-01T15:29:52;5.90;;;1.40;;
54871;SDS011;43914;57.680;11.982;2022-08-01T15:32:19;5.40;;;1.20;;
54871;SDS011;43914;57.680;11.982;2022-08-01T15:34:45;7.20;;;1.40;;
54871;SDS011;43914;57.680;11.982;2022-08-01T15:37:11;6.62;;;1.50;;
54871;SDS011;43914;57.680;11.982;2022-08-01T15:39:38;6.37;;;1.27;;
54871;SDS011;43914;57.680;11.982;2022-08-01T15:42:05;9.40;;;1.52;;
54871;SDS011;43914;57.680;11.982;2022-08-01T15:44:34;7.95;;;1.70;;
54871;SDS011;43914;57.680;11.982;2022-08-01T15:47:01;7.20;;;1.40;;
54871;SDS011;43914;57.680;11.982;2022-08-01T15:49:29;5.70;;;1.25;;
54871;SDS011;43914;57.680;11.982;2022-08-01T15:51:56;6.75;;;1.37;;
54871;SDS011;43914;57.680;11.982;2022-08-01T15:54:22;7.87;;;1.35;;
54871;SDS011;43914;57.680;11.982;2022-08-01T15:56:48;7.85;;;1.50;;
54871;SDS011;43914;57.680;11.982;2022-08-01T15:59:14;7.10;;;1.45;;
54871;SDS011;43914;57.680;11.982;2022-08-01T16:01:40;7.37;;;1.50;;
54871;SDS011;43914;57.680;11.982;2022-08-01T16:04:08;8.20;;;1.67;;